Terminal Aerodrome Forecast
Issued by NWS Paducah, KY

Home | Current Version | Previous Version | Text Only | Print | Product List | Glossary Off
Versions: 1 2 3 4 5 6 7 8 9 10 11 12 13 14 15 16 17

128
FTUS43 KPAH 231049 AAB
TAFPAH
TAF AMD
KPAH 231049Z 2311/2406 VRB02KT 1/2SM FG VV003
      TEMPO 2311/2313 3SM BR SCT003
     FM231300 08006KT P6SM SCT040=

USA.gov is the U.S. government's official web portal to all federal, state and local government web resources and services.